Terminal Aerodrome Forecast
Issued by NWS New Orleans/Baton Rouge, LA

Home | Current Version | Previous Version | Text Only | Print | Product List | Glossary On
Versions: 1 2 3 4 5 6 7 8 9 10 11 12 13 14 15 16 17
000
FTUS44 KLIX 282341
TAFNEW
TAF
KNEW 282341Z 2900/2924 16011KT P6SM FEW035
     FM290300 15008KT P6SM SCT014
     FM291700 16012KT P6SM BKN035=

USA.gov is the U.S. government's official web portal to all federal, state and local government web resources and services.